createdAt,value
2022-09-23T00:00:42.837Z,9.09
2022-09-23T00:03:10.298Z,9.07
2022-09-23T00:05:38.191Z,9.05
2022-09-23T00:08:06.451Z,9.02
2022-09-23T00:10:33.257Z,9.00
2022-09-23T00:12:59.940Z,8.98
2022-09-23T00:15:26.765Z,8.95
2022-09-23T00:17:53.401Z,8.93
2022-09-23T00:20:20.383Z,8.89
2022-09-23T00:22:47.188Z,8.89
2022-09-23T00:25:13.868Z,8.84
2022-09-23T00:27:42.085Z,8.81
2022-09-23T00:30:09.923Z,8.78
2022-09-23T00:32:37.979Z,8.76
2022-09-23T00:35:05.151Z,8.76
2022-09-23T00:37:32.127Z,8.74
2022-09-23T00:39:59.868Z,8.74
2022-09-23T00:42:26.820Z,8.73
2022-09-23T00:44:58.450Z,8.69
2022-09-23T00:47:32.841Z,8.68
2022-09-23T00:50:20.816Z,8.66
2022-09-23T00:52:49.239Z,8.65
2022-09-23T00:55:19.931Z,8.63
2022-09-23T00:57:47.763Z,8.63
2022-09-23T01:00:14.599Z,8.61
2022-09-23T01:02:41.417Z,8.60
2022-09-23T01:05:08.608Z,8.58
2022-09-23T01:07:35.434Z,8.57
2022-09-23T01:10:02.786Z,8.55
2022-09-23T01:12:48.180Z,8.58
2022-09-23T01:15:33.488Z,8.56
2022-09-23T01:18:12.708Z,8.52
2022-09-23T01:21:16.961Z,8.49
2022-09-23T01:23:58.841Z,8.45
2022-09-23T01:26:48.564Z,8.45
2022-09-23T01:29:58.921Z,8.43
2022-09-23T01:32:34.612Z,8.40
2022-09-23T01:35:19.681Z,8.37
2022-09-23T01:37:56.230Z,8.35
2022-09-23T01:40:34.076Z,8.34
2022-09-23T01:43:08.884Z,8.32
2022-09-23T01:45:47.436Z,8.31
2022-09-23T01:48:19.478Z,8.31
2022-09-23T01:50:57.815Z,8.28
2022-09-23T01:53:34.975Z,8.27
2022-09-23T01:56:29.256Z,8.25
2022-09-23T01:59:16.184Z,8.22
2022-09-23T02:01:47.718Z,8.19
2022-09-23T02:04:48.191Z,8.16
2022-09-23T02:07:21.013Z,8.13
2022-09-23T02:09:53.889Z,8.12
2022-09-23T02:12:21.493Z,8.12
2022-09-23T02:14:58.738Z,8.10
2022-09-23T02:17:32.127Z,8.08
2022-09-23T02:20:02.329Z,8.06
2022-09-23T02:22:46.715Z,8.05
2022-09-23T02:25:13.794Z,8.04
2022-09-23T02:27:57.807Z,8.02
2022-09-23T02:30:29.001Z,8.03
2022-09-23T02:33:08.666Z,8.01
2022-09-23T02:35:41.332Z,7.99
2022-09-23T02:38:45.292Z,7.98
2022-09-23T02:41:26.679Z,7.94
2022-09-23T02:44:00.070Z,7.93
2022-09-23T02:46:27.072Z,7.90
2022-09-23T02:48:56.972Z,7.91
2022-09-23T02:51:28.993Z,7.87
2022-09-23T02:53:57.481Z,7.84
2022-09-23T02:56:24.503Z,7.82
2022-09-23T02:58:52.973Z,7.82
2022-09-23T03:01:32.738Z,7.83
2022-09-23T03:04:22.684Z,7.81
2022-09-23T03:07:06.593Z,7.79
2022-09-23T03:09:56.118Z,7.79
2022-09-23T03:12:38.284Z,7.77
2022-09-23T03:15:14.408Z,7.74
2022-09-23T03:17:48.084Z,7.74
2022-09-23T03:20:21.738Z,7.72
2022-09-23T03:23:01.479Z,7.72
2022-09-23T03:25:31.747Z,7.71
2022-09-23T03:27:59.748Z,7.68
2022-09-23T03:30:27.216Z,7.64
2022-09-23T03:32:55.186Z,7.64
2022-09-23T03:35:24.374Z,7.64
2022-09-23T03:37:55.396Z,7.62
2022-09-23T03:40:30.646Z,7.60
2022-09-23T03:42:58.292Z,7.57
2022-09-23T03:45:28.370Z,7.52
2022-09-23T03:47:55.279Z,7.53
2022-09-23T03:50:22.425Z,7.56
2022-09-23T03:52:50.675Z,7.55
2022-09-23T03:55:18.720Z,7.55
2022-09-23T03:57:45.956Z,7.50
2022-09-23T04:00:13.955Z,7.50
2022-09-23T04:02:40.770Z,7.47
2022-09-23T04:05:11.491Z,7.44
2022-09-23T04:07:38.152Z,7.41
2022-09-23T04:10:06.046Z,7.37
2022-09-23T04:12:32.677Z,7.36
2022-09-23T04:14:59.330Z,7.36
2022-09-23T04:17:25.985Z,7.34
2022-09-23T04:19:52.605Z,7.33
2022-09-23T04:22:19.280Z,7.33
2022-09-23T04:24:45.909Z,7.32
2022-09-23T04:27:12.595Z,7.30
2022-09-23T04:29:39.238Z,7.29
2022-09-23T04:32:05.924Z,7.29
2022-09-23T04:34:32.627Z,7.26
2022-09-23T04:36:59.295Z,7.26
2022-09-23T04:39:25.949Z,7.26
2022-09-23T04:41:52.598Z,7.24
2022-09-23T04:44:20.533Z,7.22
2022-09-23T04:46:48.290Z,7.21
2022-09-23T04:49:15.857Z,7.20
2022-09-23T04:51:43.717Z,7.20
2022-09-23T04:54:11.890Z,7.19
2022-09-23T04:56:39.527Z,7.19
2022-09-23T04:59:07.269Z,7.19
2022-09-23T05:01:35.293Z,7.13
2022-09-23T05:04:08.042Z,7.16
2022-09-23T05:06:35.387Z,7.16
2022-09-23T05:09:04.066Z,7.14
2022-09-23T05:11:31.696Z,7.13
2022-09-23T05:13:58.779Z,7.13
2022-09-23T05:16:26.782Z,7.13
2022-09-23T05:18:54.076Z,7.11
2022-09-23T05:21:23.111Z,7.13
2022-09-23T05:23:55.510Z,7.14
2022-09-23T05:26:25.635Z,7.13
2022-09-23T05:28:53.271Z,7.15
2022-09-23T05:31:22.179Z,7.16
2022-09-23T05:33:54.165Z,7.18
2022-09-23T05:36:22.134Z,7.17
2022-09-23T05:38:50.138Z,7.19
2022-09-23T05:41:17.764Z,7.19
2022-09-23T05:43:44.646Z,7.20
2022-09-23T05:46:15.918Z,7.20
2022-09-23T05:48:43.085Z,7.24
2022-09-23T05:51:23.070Z,7.31
2022-09-23T05:53:55.223Z,7.31
2022-09-23T05:56:23.617Z,7.35
2022-09-23T05:58:51.765Z,7.39
2022-09-23T06:01:25.039Z,7.42
2022-09-23T06:03:53.434Z,7.41
2022-09-23T06:06:22.326Z,7.45
2022-09-23T06:08:49.002Z,7.52
2022-09-23T06:11:15.752Z,7.58
2022-09-23T06:13:42.544Z,7.64
2022-09-23T06:16:11.924Z,7.70
2022-09-23T06:18:40.390Z,7.72
2022-09-23T06:21:07.744Z,7.86
2022-09-23T06:23:37.417Z,7.93
2022-09-23T06:26:08.148Z,7.99
2022-09-23T06:28:36.506Z,8.03
2022-09-23T06:31:12.862Z,8.05
2022-09-23T06:33:40.484Z,8.10
2022-09-23T06:36:07.891Z,8.09
2022-09-23T06:38:34.926Z,8.16
2022-09-23T06:41:04.909Z,8.26
2022-09-23T06:43:31.836Z,8.28
2022-09-23T06:46:00.758Z,8.30
2022-09-23T06:48:28.403Z,8.27
2022-09-23T06:50:58.964Z,8.40
2022-09-23T06:53:25.647Z,8.52
2022-09-23T06:56:03.045Z,8.53
2022-09-23T06:58:30.631Z,8.74
2022-09-23T07:01:06.767Z,8.74
2022-09-23T07:03:34.120Z,8.73
2022-09-23T07:06:00.909Z,8.88
2022-09-23T07:08:28.887Z,8.98
2022-09-23T07:10:57.735Z,9.07
2022-09-23T07:13:25.071Z,9.19
2022-09-23T07:15:55.879Z,9.22
2022-09-23T07:18:25.754Z,9.22
2022-09-23T07:20:53.369Z,9.26
2022-09-23T07:23:20.808Z,9.35
2022-09-23T07:25:50.452Z,9.36
2022-09-23T07:28:17.811Z,9.57
2022-09-23T07:30:56.629Z,9.86
2022-09-23T07:33:32.119Z,10.04
2022-09-23T07:35:59.520Z,10.23
2022-09-23T07:38:30.493Z,10.40
2022-09-23T07:41:05.044Z,10.51
2022-09-23T07:43:34.651Z,10.67
2022-09-23T07:46:03.762Z,10.89
2022-09-23T07:48:34.310Z,11.14
2022-09-23T07:51:06.452Z,11.56
2022-09-23T07:53:33.528Z,12.00
2022-09-23T07:56:00.256Z,12.30
2022-09-23T07:58:26.935Z,12.52
2022-09-23T08:00:53.801Z,12.70
2022-09-23T08:03:20.825Z,13.09
2022-09-23T08:05:47.810Z,13.09
2022-09-23T08:08:14.548Z,13.39
2022-09-23T08:10:41.389Z,13.79
2022-09-23T08:13:08.125Z,14.17
2022-09-23T08:15:34.988Z,14.61
2022-09-23T08:18:01.974Z,14.85
2022-09-23T08:20:47.982Z,14.43
2022-09-23T08:23:16.858Z,14.97
2022-09-23T08:25:47.096Z,15.56
2022-09-23T08:28:18.833Z,15.86
2022-09-23T08:30:48.247Z,16.20
2022-09-23T08:33:19.598Z,16.41
2022-09-23T08:35:49.501Z,16.71
2022-09-23T08:38:16.163Z,16.89
2022-09-23T08:40:44.673Z,16.83
2022-09-23T08:43:24.342Z,16.82
2022-09-23T08:45:51.640Z,16.62
2022-09-23T08:48:29.346Z,16.74
2022-09-23T08:51:01.989Z,16.83
2022-09-23T08:53:36.601Z,17.42
2022-09-23T08:56:07.289Z,17.62
2022-09-23T08:58:42.922Z,17.96
2022-09-23T09:01:21.296Z,18.12
2022-09-23T09:03:52.120Z,18.32
2022-09-23T09:06:23.338Z,18.40
2022-09-23T09:08:57.117Z,18.68
2022-09-23T09:11:32.133Z,18.82
2022-09-23T09:14:20.062Z,18.98
2022-09-23T09:16:59.899Z,19.10
2022-09-23T09:19:53.530Z,19.20
2022-09-23T09:22:23.408Z,19.61
2022-09-23T09:24:50.647Z,19.71
2022-09-23T09:27:17.363Z,19.68
2022-09-23T09:29:49.870Z,19.85
2022-09-23T09:32:56.008Z,19.15
2022-09-23T09:35:36.903Z,18.86
2022-09-23T09:38:05.791Z,19.02
2022-09-23T09:40:34.735Z,18.93
2022-09-23T09:43:04.735Z,19.54
2022-09-23T09:45:57.947Z,19.95
2022-09-23T09:48:38.057Z,20.46
2022-09-23T09:51:22.443Z,20.63
2022-09-23T09:53:52.165Z,21.04
2022-09-23T09:56:23.140Z,21.21
2022-09-23T09:58:52.546Z,21.22
2022-09-23T10:01:23.496Z,21.42
2022-09-23T10:03:55.535Z,21.58
2022-09-23T10:06:32.624Z,21.75
2022-09-23T10:09:04.782Z,21.83
2022-09-23T10:11:32.450Z,21.83
2022-09-23T10:14:13.092Z,21.91
2022-09-23T10:16:42.188Z,21.90
2022-09-23T10:19:28.888Z,22.03
2022-09-23T10:22:14.771Z,21.87
2022-09-23T10:24:48.243Z,22.10
2022-09-23T10:27:14.932Z,21.89
2022-09-23T10:29:47.616Z,21.82
2022-09-23T10:32:27.549Z,21.55
2022-09-23T10:34:58.400Z,21.83
2022-09-23T10:37:32.756Z,22.30
2022-09-23T10:40:19.536Z,22.32
2022-09-23T10:43:33.855Z,22.46
2022-09-23T10:46:23.260Z,22.66
2022-09-23T10:49:13.141Z,22.72
2022-09-23T10:51:48.960Z,22.28
2022-09-23T10:54:36.452Z,22.41
2022-09-23T10:58:02.286Z,22.53
2022-09-23T11:00:42.901Z,22.37
2022-09-23T11:03:36.291Z,21.54
2022-09-23T11:06:13.328Z,21.53
2022-09-23T11:09:06.726Z,21.80
2022-09-23T11:12:24.284Z,21.86
2022-09-23T11:15:02.703Z,21.79
2022-09-23T11:18:04.209Z,21.69
2022-09-23T11:20:45.730Z,21.58
2022-09-23T11:23:20.261Z,21.79
2022-09-23T11:25:50.683Z,21.96
2022-09-23T11:28:36.607Z,21.70
2022-09-23T11:31:54.063Z,21.66
2022-09-23T11:34:34.247Z,21.83
2022-09-23T11:37:09.298Z,21.90
2022-09-23T11:39:42.767Z,21.85
2022-09-23T11:42:14.835Z,21.86
2022-09-23T11:44:48.578Z,21.85
2022-09-23T11:47:21.263Z,21.64
2022-09-23T11:50:02.653Z,21.74
2022-09-23T11:52:37.023Z,21.78
2022-09-23T11:55:27.726Z,21.74
2022-09-23T11:57:56.163Z,21.80
2022-09-23T12:00:29.818Z,22.03
2022-09-23T12:03:13.140Z,22.09
2022-09-23T12:05:48.851Z,22.00
2022-09-23T12:08:29.197Z,22.16
2022-09-23T12:11:06.159Z,21.90
2022-09-23T12:14:01.535Z,22.00
2022-09-23T12:16:44.935Z,21.91
2022-09-23T12:19:34.717Z,22.02
2022-09-23T12:22:16.883Z,21.83
2022-09-23T12:24:54.460Z,21.43
2022-09-23T12:27:43.930Z,21.61
2022-09-23T12:30:19.590Z,21.73
2022-09-23T12:32:46.507Z,21.75
2022-09-23T12:35:41.712Z,21.80
2022-09-23T12:38:30.570Z,21.88
2022-09-23T12:40:57.349Z,21.73
2022-09-23T12:43:34.968Z,21.67
2022-09-23T12:46:23.751Z,21.36
2022-09-23T12:49:00.664Z,21.35
2022-09-23T12:51:34.835Z,21.07
2022-09-23T12:54:04.564Z,21.26
2022-09-23T12:56:34.294Z,21.41
2022-09-23T12:59:55.948Z,21.37
2022-09-23T13:02:30.079Z,21.29
2022-09-23T13:05:17.837Z,21.18
2022-09-23T13:07:49.406Z,20.57
2022-09-23T13:10:24.610Z,20.83
2022-09-23T13:12:52.696Z,20.54
2022-09-23T13:15:29.144Z,20.39
2022-09-23T13:18:54.856Z,20.46
2022-09-23T13:21:44.994Z,20.54
2022-09-23T13:24:16.712Z,20.26
2022-09-23T13:27:01.770Z,20.23
2022-09-23T13:29:36.377Z,20.13
2022-09-23T13:32:03.586Z,20.24
2022-09-23T13:34:34.834Z,20.24
2022-09-23T13:37:22.418Z,20.19
2022-09-23T13:39:49.806Z,19.89
2022-09-23T13:42:35.941Z,19.82
2022-09-23T13:45:02.636Z,19.74
2022-09-23T13:47:30.818Z,19.62
2022-09-23T13:49:57.607Z,19.68
2022-09-23T13:52:25.468Z,19.77
2022-09-23T13:54:53.135Z,19.87
2022-09-23T13:57:29.304Z,19.76
2022-09-23T14:00:17.615Z,19.74
2022-09-23T14:02:44.601Z,19.74
2022-09-23T14:05:22.350Z,19.73
2022-09-23T14:07:50.405Z,19.72
2022-09-23T14:10:20.829Z,19.70
2022-09-23T14:12:49.562Z,19.54
2022-09-23T14:15:17.746Z,19.48
2022-09-23T14:18:17.831Z,19.59
2022-09-23T14:20:49.124Z,19.42
2022-09-23T14:23:16.641Z,19.50
2022-09-23T14:25:44.838Z,19.64
2022-09-23T14:28:16.909Z,19.63
2022-09-23T14:30:46.520Z,19.61
2022-09-23T14:33:16.547Z,19.46
2022-09-23T14:35:46.864Z,19.48
2022-09-23T14:38:39.889Z,19.58
2022-09-23T14:41:23.930Z,19.55
2022-09-23T14:43:58.999Z,19.54
2022-09-23T14:46:30.936Z,19.53
2022-09-23T14:49:06.150Z,19.49
2022-09-23T14:51:47.086Z,19.50
2022-09-23T14:54:25.309Z,19.34
2022-09-23T14:56:52.406Z,19.26
2022-09-23T15:00:02.651Z,19.00
2022-09-23T15:02:38.162Z,19.01
2022-09-23T15:05:22.621Z,19.16
2022-09-23T15:07:56.436Z,19.14
2022-09-23T15:10:27.791Z,19.11
2022-09-23T15:12:56.761Z,19.09
2022-09-23T15:15:28.140Z,19.09
2022-09-23T15:17:55.238Z,18.97
2022-09-23T15:20:24.984Z,18.97
2022-09-23T15:22:54.568Z,18.97
2022-09-23T15:25:23.278Z,18.92
2022-09-23T15:28:17.902Z,18.88
2022-09-23T15:30:45.586Z,18.85
2022-09-23T15:33:14.117Z,18.82
2022-09-23T15:35:47.592Z,18.77
2022-09-23T15:38:14.496Z,18.72
2022-09-23T15:40:41.592Z,18.65
2022-09-23T15:43:21.461Z,18.58
2022-09-23T15:45:52.896Z,18.55
2022-09-23T15:48:22.800Z,18.53
2022-09-23T15:50:50.788Z,18.48
2022-09-23T15:53:21.749Z,18.43
2022-09-23T15:55:51.561Z,18.40
2022-09-23T15:58:22.284Z,18.37
2022-09-23T16:00:55.977Z,18.32
2022-09-23T16:03:28.791Z,18.27
2022-09-23T16:06:00.744Z,18.23
2022-09-23T16:08:29.370Z,18.20
2022-09-23T16:10:59.176Z,18.14
2022-09-23T16:13:26.120Z,18.12
2022-09-23T16:15:52.825Z,18.09
2022-09-23T16:18:20.300Z,18.09
2022-09-23T16:20:47.823Z,18.05
2022-09-23T16:23:35.723Z,18.01
2022-09-23T16:26:05.760Z,17.98
2022-09-23T16:28:32.458Z,17.92
2022-09-23T16:30:59.347Z,17.88
2022-09-23T16:33:27.569Z,17.85
2022-09-23T16:35:54.876Z,17.80
2022-09-23T16:38:21.619Z,17.76
2022-09-23T16:40:48.494Z,17.71
2022-09-23T16:43:15.376Z,17.61
2022-09-23T16:45:42.295Z,17.54
2022-09-23T16:48:11.513Z,17.48
2022-09-23T16:50:38.237Z,17.42
2022-09-23T16:53:04.993Z,17.31
2022-09-23T16:55:31.967Z,17.23
2022-09-23T16:57:58.688Z,17.13
2022-09-23T17:00:44.386Z,17.03
2022-09-23T17:03:31.238Z,16.93
2022-09-23T17:05:58.179Z,16.83
2022-09-23T17:08:25.191Z,16.72
2022-09-23T17:10:58.663Z,16.61
2022-09-23T17:13:29.665Z,16.52
2022-09-23T17:15:56.869Z,16.41
2022-09-23T17:18:23.945Z,16.33
2022-09-23T17:21:01.751Z,16.23
2022-09-23T17:23:29.127Z,16.14
2022-09-23T17:25:55.868Z,16.05
2022-09-23T17:28:22.897Z,15.99
2022-09-23T17:31:00.505Z,15.91
2022-09-23T17:33:28.817Z,15.80
2022-09-23T17:35:57.287Z,15.73
2022-09-23T17:38:28.674Z,15.65
2022-09-23T17:40:57.639Z,15.57
2022-09-23T17:43:27.178Z,15.54
2022-09-23T17:45:56.326Z,15.49
2022-09-23T17:48:24.764Z,15.46
2022-09-23T17:50:59.113Z,15.39
2022-09-23T17:53:26.358Z,15.32
2022-09-23T17:56:01.217Z,15.25
2022-09-23T17:58:30.190Z,15.23
2022-09-23T18:00:57.476Z,15.16
2022-09-23T18:03:25.905Z,15.14
2022-09-23T18:05:52.810Z,15.12
2022-09-23T18:08:20.015Z,15.10
2022-09-23T18:10:46.755Z,15.09
2022-09-23T18:13:13.573Z,15.07
2022-09-23T18:15:40.770Z,15.02
2022-09-23T18:18:07.784Z,15.02
2022-09-23T18:20:34.553Z,15.01
2022-09-23T18:23:01.248Z,15.00
2022-09-23T18:25:39.259Z,14.99
2022-09-23T18:28:06.687Z,14.99
2022-09-23T18:30:36.553Z,14.97
2022-09-23T18:33:03.535Z,14.96
2022-09-23T18:35:30.782Z,14.95
2022-09-23T18:37:57.836Z,14.92
2022-09-23T18:40:24.689Z,14.91
2022-09-23T18:42:51.474Z,14.88
2022-09-23T18:45:18.235Z,14.87
2022-09-23T18:48:03.684Z,14.83
2022-09-23T18:50:39.629Z,14.77
2022-09-23T18:53:06.666Z,14.71
2022-09-23T18:55:35.190Z,14.68
2022-09-23T18:58:02.497Z,14.64
2022-09-23T19:00:29.287Z,14.59
2022-09-23T19:02:56.067Z,14.53
2022-09-23T19:05:22.725Z,14.50
2022-09-23T19:07:49.753Z,14.47
2022-09-23T19:10:16.614Z,14.44
2022-09-23T19:12:43.832Z,14.39
2022-09-23T19:15:10.845Z,14.33
2022-09-23T19:17:37.628Z,14.28
2022-09-23T19:20:04.814Z,14.24
2022-09-23T19:22:32.956Z,14.19
2022-09-23T19:24:59.915Z,14.17
2022-09-23T19:27:26.623Z,14.12
2022-09-23T19:29:53.472Z,14.07
2022-09-23T19:32:20.377Z,13.99
2022-09-23T19:34:47.059Z,13.98
2022-09-23T19:37:14.003Z,13.93
2022-09-23T19:39:41.001Z,13.91
2022-09-23T19:42:07.888Z,13.88
2022-09-23T19:44:39.301Z,13.86
2022-09-23T19:47:06.183Z,13.82
2022-09-23T19:49:36.323Z,13.79
2022-09-23T19:52:03.039Z,13.77
2022-09-23T19:54:29.763Z,13.71
2022-09-23T19:56:56.476Z,13.68
2022-09-23T19:59:23.418Z,13.69
2022-09-23T20:01:50.359Z,13.65
2022-09-23T20:04:17.340Z,13.61
2022-09-23T20:06:44.204Z,13.59
2022-09-23T20:09:10.849Z,13.55
2022-09-23T20:11:37.539Z,13.50
2022-09-23T20:14:06.279Z,13.47
2022-09-23T20:16:35.484Z,13.43
2022-09-23T20:19:04.276Z,13.39
2022-09-23T20:21:31.394Z,13.37
2022-09-23T20:23:58.293Z,13.35
2022-09-23T20:26:44.068Z,13.32
2022-09-23T20:29:11.412Z,13.29
2022-09-23T20:31:40.533Z,13.24
2022-09-23T20:34:08.373Z,13.22
2022-09-23T20:36:35.580Z,13.20
2022-09-23T20:39:06.140Z,13.20
2022-09-23T20:41:37.511Z,13.17
2022-09-23T20:44:07.131Z,13.16
2022-09-23T20:46:34.514Z,13.14
2022-09-23T20:49:02.125Z,13.09
2022-09-23T20:51:28.985Z,13.09
2022-09-23T20:53:55.719Z,13.08
2022-09-23T20:56:23.628Z,13.07
2022-09-23T20:58:52.618Z,13.07
2022-09-23T21:01:21.240Z,13.05
2022-09-23T21:03:50.151Z,13.04
2022-09-23T21:06:18.831Z,13.03
2022-09-23T21:08:45.970Z,13.01
2022-09-23T21:11:15.206Z,13.01
2022-09-23T21:13:47.205Z,13.00
2022-09-23T21:16:16.202Z,13.00
2022-09-23T21:18:43.795Z,13.00
2022-09-23T21:21:12.254Z,12.99
2022-09-23T21:23:39.748Z,12.96
2022-09-23T21:26:08.167Z,12.97
2022-09-23T21:28:37.640Z,12.97
2022-09-23T21:31:06.597Z,12.97
2022-09-23T21:33:33.855Z,12.98
2022-09-23T21:36:06.394Z,12.97
2022-09-23T21:38:37.389Z,12.95
2022-09-23T21:41:06.825Z,12.98
2022-09-23T21:43:35.418Z,12.98
2022-09-23T21:46:04.521Z,12.97
2022-09-23T21:48:36.343Z,12.96
2022-09-23T21:51:08.451Z,12.97
2022-09-23T21:53:38.615Z,12.98
2022-09-23T21:56:10.553Z,12.97
2022-09-23T21:58:38.541Z,12.97
2022-09-23T22:01:14.751Z,12.97
2022-09-23T22:03:43.641Z,12.97
2022-09-23T22:06:15.109Z,12.91
2022-09-23T22:08:43.157Z,12.94
2022-09-23T22:11:33.567Z,12.93
2022-09-23T22:14:02.615Z,12.93
2022-09-23T22:16:29.994Z,12.95
2022-09-23T22:18:58.713Z,12.92
2022-09-23T22:21:27.006Z,12.92
2022-09-23T22:23:55.223Z,12.91
2022-09-23T22:26:21.880Z,12.91
2022-09-23T22:29:07.252Z,12.89
2022-09-23T22:31:52.588Z,12.87
2022-09-23T22:34:48.432Z,12.87
2022-09-23T22:37:14.022Z,12.87
2022-09-23T22:39:40.800Z,12.87
2022-09-23T22:42:07.522Z,12.86
2022-09-23T22:44:34.199Z,12.86
2022-09-23T22:47:01.706Z,12.85
2022-09-23T22:49:30.032Z,12.83
2022-09-23T22:51:56.749Z,12.80
2022-09-23T22:54:23.419Z,12.81
2022-09-23T22:56:50.949Z,12.80
2022-09-23T22:59:17.616Z,12.77
2022-09-23T23:01:44.316Z,12.81
2022-09-23T23:04:12.549Z,12.76
2022-09-23T23:06:39.399Z,12.78
2022-09-23T23:09:11.384Z,12.77
2022-09-23T23:11:42.469Z,12.78
2022-09-23T23:14:14.218Z,12.78
2022-09-23T23:16:41.022Z,12.78
2022-09-23T23:19:10.106Z,12.77
2022-09-23T23:21:37.267Z,12.77
2022-09-23T23:24:05.003Z,12.73
2022-09-23T23:26:33.865Z,12.69
2022-09-23T23:29:01.554Z,12.71
2022-09-23T23:31:29.327Z,12.68
2022-09-23T23:33:56.027Z,12.66
2022-09-23T23:36:23.745Z,12.67
2022-09-23T23:38:51.845Z,12.66
2022-09-23T23:41:22.714Z,12.64
2022-09-23T23:43:58.398Z,12.62
2022-09-23T23:46:26.745Z,12.59
2022-09-23T23:48:54.680Z,12.59
2022-09-23T23:51:21.773Z,12.56
2022-09-23T23:53:49.034Z,12.56
2022-09-23T23:56:18.253Z,12.54
2022-09-23T23:58:45.715Z,12.52
